Time;durP1;ratioP1;P1;durP2;ratioP2;P2;SDS_P1;SDS_P2;PMS_P1;PMS_P2;Temp;Humidity;BMP_temperature;BMP_pressure;BME280_temperature;BME280_humidity;BME280_pressure;Samples;Min_cycle;Max_cycle;Signal;HPM_P1;HPM_P2
2021/03/15 00:00:59;;;;;;;7.87;1.83;;;6.40;99.90;;;;;;5052628;28;20215;-44
2021/03/15 00:03:26;;;;;;;5.43;1.60;;;6.50;99.90;;;;;;5054348;28;20652;-44
2021/03/15 00:05:57;;;;;;;3.43;2.20;;;6.50;99.90;;;;;;5057649;28;20205;-44
2021/03/15 00:08:24;;;;;;;5.00;2.30;;;6.40;99.90;;;;;;5057743;28;20209;-44
2021/03/15 00:10:51;;;;;;;5.57;1.70;;;6.50;99.90;;;;;;5055230;28;20266;-44
2021/03/15 00:13:18;;;;;;;3.40;2.13;;;6.50;99.90;;;;;;5054763;28;20222;-44
2021/03/15 00:15:45;;;;;;;4.30;2.20;;;6.50;99.90;;;;;;5054992;28;20661;-44
2021/03/15 00:18:12;;;;;;;5.77;1.90;;;6.30;99.90;;;;;;5056220;28;20658;-44
2021/03/15 00:20:39;;;;;;;3.30;1.63;;;6.40;99.90;;;;;;5053118;28;20213;-45
2021/03/15 00:23:05;;;;;;;6.40;1.93;;;6.50;99.90;;;;;;5057147;28;20203;-44
2021/03/15 00:25:32;;;;;;;3.93;2.50;;;6.50;99.90;;;;;;5054716;28;20648;-44
2021/03/15 00:27:58;;;;;;;4.33;2.10;;;6.50;99.90;;;;;;5051289;28;20251;-44
2021/03/15 00:30:25;;;;;;;3.13;1.93;;;6.40;99.90;;;;;;5058652;28;20238;-44
2021/03/15 00:32:52;;;;;;;4.47;2.40;;;6.50;99.90;;;;;;5052350;28;20238;-45
2021/03/15 00:35:22;;;;;;;7.37;2.37;;;6.50;99.90;;;;;;5055125;28;20229;-45
2021/03/15 00:37:49;;;;;;;4.63;2.63;;;6.50;99.90;;;;;;5057353;28;20290;-45
2021/03/15 00:40:19;;;;;;;5.27;2.70;;;6.60;99.90;;;;;;5053401;28;20208;-45
2021/03/15 00:42:46;;;;;;;5.60;2.67;;;6.80;99.90;;;;;;5056577;28;20206;-44
2021/03/15 00:45:14;;;;;;;4.00;2.57;;;6.90;99.90;;;;;;5057542;28;20262;-44
2021/03/15 00:47:41;;;;;;;5.50;2.47;;;6.70;99.90;;;;;;5053328;28;20206;-44
2021/03/15 00:50:27;;;;;;;4.07;2.83;;;6.50;99.90;;;;;;5055443;28;20969;-45
2021/03/15 00:52:54;;;;;;;3.63;2.47;;;6.30;99.90;;;;;;5055155;28;20243;-46
2021/03/15 00:55:20;;;;;;;5.77;2.40;;;6.40;99.90;;;;;;5056043;28;20255;-45
2021/03/15 00:57:47;;;;;;;5.93;2.60;;;6.20;99.90;;;;;;5052638;28;20216;-44
2021/03/15 01:00:17;;;;;;;7.70;3.13;;;6.20;99.90;;;;;;5023344;28;20597;-44
2021/03/15 01:02:43;;;;;;;6.83;3.43;;;6.40;99.90;;;;;;5053459;28;20217;-45
2021/03/15 01:05:11;;;;;;;5.30;2.97;;;6.70;99.90;;;;;;5037452;28;20205;-44
2021/03/15 01:07:38;;;;;;;9.93;3.57;;;6.90;99.90;;;;;;5055986;28;20211;-44
2021/03/15 01:10:11;;;;;;;7.33;3.60;;;6.80;99.90;;;;;;5035415;28;20228;-44
2021/03/15 01:12:38;;;;;;;4.33;3.07;;;6.70;99.90;;;;;;5038189;28;20243;-45
2021/03/15 01:15:10;;;;;;;9.20;3.60;;;6.90;99.90;;;;;;5043618;28;20238;-45
2021/03/15 01:17:37;;;;;;;7.03;3.47;;;6.80;99.90;;;;;;5052862;28;20670;-45
2021/03/15 01:20:06;;;;;;;6.10;3.27;;;6.80;99.90;;;;;;5054363;28;20205;-45
2021/03/15 01:22:33;;;;;;;5.87;3.30;;;6.70;99.90;;;;;;5055626;28;20655;-44
2021/03/15 01:24:59;;;;;;;4.27;3.00;;;6.80;99.90;;;;;;5054756;28;20472;-47
2021/03/15 01:27:26;;;;;;;6.67;3.20;;;6.70;99.90;;;;;;5035679;28;20582;-45
2021/03/15 01:29:53;;;;;;;5.40;3.10;;;6.80;99.90;;;;;;5054989;28;20700;-44
2021/03/15 01:32:20;;;;;;;3.83;3.03;;;6.70;99.90;;;;;;5050960;28;20222;-45
2021/03/15 01:34:47;;;;;;;7.00;3.67;;;6.60;99.90;;;;;;5055305;28;20291;-45
2021/03/15 01:37:13;;;;;;;4.20;3.43;;;6.40;99.90;;;;;;5054600;28;20510;-44
2021/03/15 01:39:39;;;;;;;6.50;3.70;;;6.50;99.90;;;;;;5043031;28;20195;-44
2021/03/15 01:42:07;;;;;;;7.60;4.30;;;6.70;99.90;;;;;;5051907;28;20203;-44
2021/03/15 01:44:34;;;;;;;8.07;4.60;;;6.70;99.90;;;;;;5058046;28;20206;-44
2021/03/15 01:47:01;;;;;;;5.67;4.27;;;6.70;99.90;;;;;;5054785;28;20269;-44
2021/03/15 01:49:28;;;;;;;6.53;4.77;;;6.80;99.90;;;;;;5051852;28;20202;-44
2021/03/15 01:51:54;;;;;;;6.03;3.90;;;6.80;99.90;;;;;;5054942;28;20236;-45
2021/03/15 01:54:22;;;;;;;9.37;4.33;;;6.70;99.90;;;;;;5054545;28;20302;-45
2021/03/15 01:56:49;;;;;;;6.13;4.10;;;6.80;99.90;;;;;;5052747;28;20266;-45
2021/03/15 01:59:16;;;;;;;7.23;4.37;;;6.80;99.90;;;;;;5052973;28;20330;-44
2021/03/15 02:01:46;;;;;;;6.77;4.53;;;6.70;99.90;;;;;;5042152;28;20764;-44
2021/03/15 02:04:16;;;;;;;5.87;4.17;;;7.10;99.90;;;;;;5051695;28;20211;-44
2021/03/15 02:06:44;;;;;;;8.93;4.53;;;7.30;99.90;;;;;;5054342;28;20281;-45
2021/03/15 02:09:12;;;;;;;8.97;4.60;;;7.40;99.90;;;;;;5050502;28;20369;-45
2021/03/15 02:11:49;;;;;;;7.03;4.47;;;7.50;99.90;;;;;;5053852;28;20289;-44
2021/03/15 02:14:30;;;;;;;10.03;4.80;;;7.40;99.90;;;;;;5053394;28;20743;-44
2021/03/15 02:16:57;;;;;;;6.27;5.07;;;7.30;99.90;;;;;;5053970;28;20328;-45
2021/03/15 02:20:10;;;;;;;6.00;4.10;;;7.40;99.90;;;;;;5051048;28;20206;-45
2021/03/15 02:22:57;;;;;;;4.63;4.03;;;7.50;99.90;;;;;;5024080;28;20524;-44
2021/03/15 02:25:42;;;;;;;5.90;4.07;;;7.50;99.90;;;;;;5054762;28;20241;-44
2021/03/15 02:28:35;;;;;;;5.77;4.00;;;7.30;99.90;;;;;;5052745;28;20303;-45
2021/03/15 02:31:17;;;;;;;4.73;4.00;;;7.30;99.90;;;;;;5054675;28;20235;-45
2021/03/15 02:34:05;;;;;;;5.47;3.77;;;7.40;99.90;;;;;;5050768;28;20216;-45
2021/03/15 02:36:37;;;;;;;4.80;3.67;;;7.40;99.90;;;;;;5052994;28;20606;-45
2021/03/15 02:39:09;;;;;;;10.23;3.03;;;7.30;99.90;;;;;;5048743;28;20196;-45
2021/03/15 02:41:39;;;;;;;5.03;3.20;;;7.00;99.90;;;;;;5052855;28;20228;-45
2021/03/15 02:44:08;;;;;;;3.90;3.00;;;7.00;99.90;;;;;;5038036;28;20233;-45
2021/03/15 02:46:36;;;;;;;3.83;3.00;;;7.00;99.90;;;;;;5055550;28;20279;-44
2021/03/15 02:49:08;;;;;;;3.47;2.37;;;7.10;99.90;;;;;;5046739;28;20658;-44
2021/03/15 02:51:38;;;;;;;3.13;2.20;;;7.00;99.90;;;;;;5053880;28;20286;-44
2021/03/15 02:54:09;;;;;;;2.57;1.80;;;7.00;99.90;;;;;;5053937;28;20566;-44
2021/03/15 02:56:42;;;;;;;4.10;2.10;;;7.00;99.90;;;;;;5051629;28;20284;-44
2021/03/15 02:59:10;;;;;;;3.10;1.53;;;7.00;99.90;;;;;;5050774;28;20248;-46
2021/03/15 03:01:38;;;;;;;2.40;1.60;;;7.00;99.90;;;;;;5055568;28;20206;-46
2021/03/15 03:04:08;;;;;;;3.27;1.73;;;7.00;99.90;;;;;;5054176;28;20577;-45
2021/03/15 03:06:36;;;;;;;2.97;1.30;;;7.00;99.90;;;;;;5050182;28;20296;-45
2021/03/15 03:09:05;;;;;;;4.13;1.30;;;6.90;99.90;;;;;;5048784;28;20560;-45
2021/03/15 03:11:33;;;;;;;1.83;1.03;;;6.90;99.90;;;;;;5054839;28;20197;-45
2021/03/15 03:14:01;;;;;;;3.23;1.47;;;6.80;99.90;;;;;;5053232;28;20223;-45
2021/03/15 03:16:33;;;;;;;2.03;1.17;;;6.80;99.90;;;;;;5054768;28;20749;-45
2021/03/15 03:19:01;;;;;;;1.80;1.00;;;6.80;99.90;;;;;;5055215;28;20252;-45
2021/03/15 03:21:29;;;;;;;2.60;1.30;;;6.80;99.90;;;;;;5050020;28;20310;-44
2021/03/15 03:23:59;;;;;;;1.70;1.40;;;6.90;99.90;;;;;;5035155;28;20275;-44
2021/03/15 03:26:28;;;;;;;2.87;1.27;;;7.00;99.90;;;;;;5055191;28;20659;-44
2021/03/15 03:28:56;;;;;;;4.30;1.70;;;7.20;99.90;;;;;;5053154;28;20273;-44
2021/03/15 03:31:31;;;;;;;2.97;1.80;;;7.20;99.90;;;;;;5052405;28;20234;-45
2021/03/15 03:34:00;;;;;;;6.03;1.97;;;7.20;99.90;;;;;;5033618;28;20247;-44
2021/03/15 03:36:27;;;;;;;3.73;2.10;;;7.20;99.90;;;;;;5037045;28;20576;-45
2021/03/15 03:38:54;;;;;;;2.17;1.60;;;7.30;99.90;;;;;;5055334;28;20280;-45
2021/03/15 03:41:21;;;;;;;2.77;2.03;;;7.20;99.90;;;;;;5051538;28;20254;-45
2021/03/15 03:44:04;;;;;;;2.37;2.17;;;7.10;99.90;;;;;;5054371;28;20596;-44
2021/03/15 03:46:31;;;;;;;5.53;2.47;;;7.20;99.90;;;;;;5053469;28;20291;-45
2021/03/15 03:48:57;;;;;;;3.03;2.30;;;7.00;99.90;;;;;;5053980;28;20297;-45
2021/03/15 03:51:37;;;;;;;3.83;2.13;;;7.00;99.90;;;;;;5052384;28;20247;-45
2021/03/15 03:54:11;;;;;;;5.67;2.70;;;6.90;99.90;;;;;;5049888;28;20305;-44
2021/03/15 03:57:07;;;;;;;5.07;2.30;;;7.00;99.90;;;;;;5055590;28;20253;-44
2021/03/15 03:59:37;;;;;;;4.03;2.87;;;7.10;99.90;;;;;;5055720;28;20247;-44
2021/03/15 04:02:04;;;;;;;5.43;3.10;;;7.00;99.90;;;;;;5057592;28;20279;-44
2021/03/15 04:04:38;;;;;;;7.23;3.47;;;7.00;99.90;;;;;;5055187;28;20227;-45
2021/03/15 04:07:07;;;;;;;8.17;3.27;;;7.20;99.90;;;;;;5055920;28;20568;-45
2021/03/15 04:09:36;;;;;;;4.30;2.83;;;7.20;99.90;;;;;;5051873;28;20279;-44
2021/03/15 04:12:08;;;;;;;4.63;2.67;;;7.20;99.90;;;;;;5059224;28;20266;-45
2021/03/15 04:14:40;;;;;;;4.10;3.63;;;7.20;99.90;;;;;;5053412;28;20296;-45
2021/03/15 04:17:10;;;;;;;5.33;3.40;;;7.30;99.90;;;;;;5056661;28;20195;-45
2021/03/15 04:19:42;;;;;;;7.93;3.00;;;7.30;99.90;;;;;;5056813;28;20199;-45
2021/03/15 04:22:11;;;;;;;6.17;2.97;;;7.20;99.90;;;;;;5054955;28;20284;-45
2021/03/15 04:24:40;;;;;;;5.73;2.87;;;7.20;99.90;;;;;;5057331;28;20216;-45
2021/03/15 04:27:08;;;;;;;6.40;3.90;;;7.20;99.90;;;;;;5056066;28;20288;-45
2021/03/15 04:29:36;;;;;;;6.17;3.50;;;7.30;99.90;;;;;;5054679;28;20261;-45
2021/03/15 04:32:03;;;;;;;4.73;2.73;;;7.20;99.90;;;;;;5058431;28;20208;-45
2021/03/15 04:34:32;;;;;;;6.53;3.17;;;7.20;99.90;;;;;;5057607;28;20214;-45
2021/03/15 04:37:00;;;;;;;7.03;2.40;;;7.20;99.90;;;;;;5054475;28;20232;-45
2021/03/15 04:39:30;;;;;;;4.50;3.13;;;7.30;99.90;;;;;;5055161;28;20606;-45
2021/03/15 04:41:57;;;;;;;5.27;2.57;;;7.30;99.90;;;;;;5052876;28;20204;-45
2021/03/15 04:44:25;;;;;;;5.87;2.93;;;7.30;99.90;;;;;;5045014;28;20208;-45
2021/03/15 04:46:53;;;;;;;4.47;2.80;;;7.20;99.90;;;;;;5059219;28;20199;-45
2021/03/15 04:49:21;;;;;;;8.03;2.80;;;7.10;99.90;;;;;;5054451;28;20211;-45
2021/03/15 04:51:49;;;;;;;7.17;3.47;;;7.00;99.90;;;;;;5057319;28;21116;-43
2021/03/15 04:54:15;;;;;;;8.07;3.03;;;7.10;99.90;;;;;;5051815;28;20308;-45
2021/03/15 04:56:43;;;;;;;5.97;3.33;;;7.10;99.90;;;;;;5049360;28;20208;-45
2021/03/15 04:59:11;;;;;;;8.23;3.20;;;7.20;99.90;;;;;;5049823;28;20223;-45
2021/03/15 05:01:41;;;;;;;10.53;4.20;;;7.10;99.90;;;;;;5051552;28;20249;-44
2021/03/15 05:04:12;;;;;;;9.77;4.30;;;7.00;99.90;;;;;;5053177;28;20302;-44
2021/03/15 05:06:41;;;;;;;7.33;3.53;;;7.10;99.90;;;;;;5055275;28;20317;-45
2021/03/15 05:09:12;;;;;;;9.07;3.67;;;7.10;99.90;;;;;;5052765;28;20212;-45
2021/03/15 05:11:40;;;;;;;10.33;4.13;;;7.10;99.90;;;;;;5055051;28;20268;-45
2021/03/15 05:14:09;;;;;;;9.03;3.60;;;7.10;99.90;;;;;;5055289;28;20244;-45
2021/03/15 05:16:41;;;;;;;5.63;2.97;;;7.10;99.90;;;;;;5056793;28;20260;-46
2021/03/15 05:19:13;;;;;;;5.93;3.23;;;7.10;99.90;;;;;;5052335;28;20250;-45
2021/03/15 05:21:41;;;;;;;5.87;3.23;;;7.10;99.90;;;;;;5055379;28;20231;-45
2021/03/15 05:24:08;;;;;;;6.07;3.37;;;6.90;99.90;;;;;;5058255;28;20705;-44
2021/03/15 05:26:38;;;;;;;5.33;3.60;;;7.00;99.90;;;;;;5053065;28;20982;-44
2021/03/15 05:29:07;;;;;;;7.27;3.30;;;7.10;99.90;;;;;;5056699;28;20256;-44
2021/03/15 05:31:37;;;;;;;4.27;3.40;;;7.00;99.90;;;;;;5053231;28;20269;-44
2021/03/15 05:34:06;;;;;;;4.83;3.50;;;7.10;99.90;;;;;;5052739;28;20433;-44
2021/03/15 05:36:34;;;;;;;5.43;3.83;;;7.00;99.90;;;;;;5053488;28;20604;-44
2021/03/15 05:39:07;;;;;;;6.77;3.87;;;7.00;99.90;;;;;;5052435;28;20683;-44
2021/03/15 05:41:59;;;;;;;5.73;3.37;;;7.00;99.90;;;;;;5053696;28;20700;-44
2021/03/15 05:44:42;;;;;;;11.07;3.53;;;6.90;99.90;;;;;;5036598;28;20203;-44
2021/03/15 05:47:24;;;;;;;6.07;2.77;;;7.00;99.90;;;;;;5035909;28;20199;-46
2021/03/15 05:50:29;;;;;;;5.57;2.53;;;7.00;99.90;;;;;;5041997;28;20728;-44
2021/03/15 05:53:33;;;;;;;8.73;2.97;;;7.00;99.90;;;;;;5053311;28;20772;-45
2021/03/15 05:56:33;;;;;;;5.07;2.83;;;7.00;99.90;;;;;;5055775;28;20223;-44
2021/03/15 05:59:18;;;;;;;11.17;3.57;;;7.10;99.90;;;;;;5038949;28;20248;-44
2021/03/15 06:02:03;;;;;;;3.70;2.50;;;7.10;99.90;;;;;;5052842;28;20595;-44
2021/03/15 06:04:58;;;;;;;9.43;3.30;;;7.10;99.90;;;;;;5051817;28;20651;-44
2021/03/15 06:07:28;;;;;;;5.93;3.00;;;7.10;99.90;;;;;;5054045;28;22081;-44
2021/03/15 06:09:58;;;;;;;4.93;2.77;;;7.10;99.90;;;;;;5052832;28;20658;-45
2021/03/15 06:12:26;;;;;;;5.13;3.27;;;7.10;99.90;;;;;;5054459;28;20659;-44
2021/03/15 06:14:54;;;;;;;9.43;3.40;;;7.20;99.90;;;;;;5049809;28;20697;-45
2021/03/15 06:17:24;;;;;;;6.23;3.57;;;7.20;99.90;;;;;;5054832;28;20204;-44
2021/03/15 06:19:51;;;;;;;6.30;3.00;;;7.30;99.90;;;;;;5042697;28;20527;-45
2021/03/15 06:22:19;;;;;;;8.33;3.10;;;7.30;99.90;;;;;;5035203;28;20248;-45
2021/03/15 06:24:46;;;;;;;5.13;2.90;;;7.20;99.90;;;;;;5036847;28;20195;-44
2021/03/15 06:27:13;;;;;;;5.47;2.93;;;7.10;99.90;;;;;;5054664;28;20232;-44
2021/03/15 06:29:39;;;;;;;5.17;3.20;;;7.20;99.90;;;;;;5054349;28;20604;-44
2021/03/15 06:32:07;;;;;;;9.13;3.43;;;7.20;99.90;;;;;;5034374;28;20230;-44
2021/03/15 06:34:36;;;;;;;4.53;2.80;;;7.20;99.90;;;;;;5053913;28;20219;-44
2021/03/15 06:37:02;;;;;;;12.10;3.33;;;7.30;99.90;;;;;;5052388;28;20281;-44
2021/03/15 06:39:36;;;;;;;7.00;3.20;;;7.10;99.90;;;;;;5051128;28;20639;-44
2021/03/15 06:42:07;;;;;;;12.83;3.07;;;7.10;99.90;;;;;;5056257;28;20259;-45
2021/03/15 06:44:35;;;;;;;7.73;2.90;;;7.20;99.90;;;;;;5054440;28;20264;-44
2021/03/15 06:47:01;;;;;;;5.37;3.00;;;7.20;99.90;;;;;;5051408;28;20198;-44
2021/03/15 06:49:29;;;;;;;6.40;3.23;;;7.20;99.90;;;;;;5051964;28;20293;-44
2021/03/15 06:52:00;;;;;;;7.47;3.30;;;7.20;99.90;;;;;;5038739;28;20794;-44
2021/03/15 06:54:28;;;;;;;9.03;3.40;;;7.20;99.90;;;;;;5052511;28;20314;-45
2021/03/15 06:57:11;;;;;;;12.87;3.60;;;7.20;99.90;;;;;;5050478;28;20201;-45
2021/03/15 06:59:48;;;;;;;6.20;3.60;;;7.20;99.90;;;;;;5036464;28;20288;-45
2021/03/15 07:02:21;;;;;;;7.27;3.67;;;7.40;99.90;;;;;;5050927;28;20222;-45
2021/03/15 07:04:49;;;;;;;10.97;3.73;;;7.40;99.90;;;;;;5037846;28;20301;-45
2021/03/15 07:07:26;;;;;;;6.13;2.50;;;7.20;99.90;;;;;;5048993;28;20700;-45
2021/03/15 07:09:54;;;;;;;9.10;3.00;;;7.10;99.90;;;;;;5047955;28;22088;-45
2021/03/15 07:12:25;;;;;;;5.70;2.93;;;7.30;99.90;;;;;;5054007;28;20202;-45
2021/03/15 07:14:53;;;;;;;7.47;2.50;;;7.30;99.90;;;;;;5055787;28;20319;-45
2021/03/15 07:17:21;;;;;;;5.20;2.30;;;7.30;99.90;;;;;;5052721;28;20201;-46
2021/03/15 07:19:48;;;;;;;11.07;2.87;;;7.30;99.90;;;;;;5055565;28;20299;-45
2021/03/15 07:22:26;;;;;;;5.97;2.07;;;7.40;99.90;;;;;;5055738;28;20254;-45
2021/03/15 07:25:10;;;;;;;4.80;2.20;;;7.40;99.90;;;;;;5053664;28;20268;-44
2021/03/15 07:27:39;;;;;;;5.00;2.17;;;7.40;99.90;;;;;;5057477;28;20238;-44
2021/03/15 07:30:37;;;;;;;6.20;2.10;;;7.50;99.90;;;;;;5055206;28;20235;-43
2021/03/15 07:33:22;;;;;;;5.37;3.03;;;7.40;99.90;;;;;;5051414;28;20318;-45
2021/03/15 07:35:48;;;;;;;3.10;1.93;;;7.40;99.90;;;;;;5056371;28;20207;-45
2021/03/15 07:38:15;;;;;;;10.30;2.67;;;7.50;99.90;;;;;;5058169;28;20635;-46
2021/03/15 07:40:45;;;;;;;6.77;2.10;;;7.50;99.90;;;;;;5057849;28;20223;-46
2021/03/15 07:43:16;;;;;;;6.17;1.90;;;7.50;99.90;;;;;;5059951;28;20248;-46
2021/03/15 07:45:44;;;;;;;3.87;2.10;;;7.60;99.90;;;;;;5060186;28;20208;-46
2021/03/15 07:48:22;;;;;;;3.83;2.27;;;7.70;99.90;;;;;;5056080;28;20682;-46
2021/03/15 07:51:03;;;;;;;8.37;2.30;;;7.80;99.90;;;;;;5051330;28;20242;-44
2021/03/15 07:53:49;;;;;;;3.03;1.50;;;7.70;99.90;;;;;;5055382;28;20270;-45
2021/03/15 07:56:22;;;;;;;9.23;1.87;;;7.70;99.90;;;;;;5058455;28;20289;-47
2021/03/15 07:58:49;;;;;;;7.07;3.23;;;7.90;99.90;;;;;;5055678;28;21884;-45
2021/03/15 08:01:17;;;;;;;8.97;1.83;;;8.10;99.90;;;;;;5053385;28;20317;-45
2021/03/15 08:03:44;;;;;;;14.73;2.00;;;8.00;99.90;;;;;;5054702;28;20207;-45
2021/03/15 08:06:12;;;;;;;12.00;2.00;;;8.10;99.90;;;;;;5040948;28;20200;-45
2021/03/15 08:08:41;;;;;;;8.10;2.43;;;8.20;99.90;;;;;;5054528;28;20211;-45
2021/03/15 08:11:12;;;;;;;8.13;1.93;;;8.70;99.90;;;;;;5055519;28;20245;-48
2021/03/15 08:13:44;;;;;;;9.00;1.83;;;8.80;99.90;;;;;;5059416;28;20212;-46
2021/03/15 08:16:18;;;;;;;4.53;1.63;;;9.10;99.90;;;;;;5059283;28;20614;-47
2021/03/15 08:18:48;;;;;;;4.27;2.47;;;8.80;99.90;;;;;;5050547;28;20498;-46
2021/03/15 08:21:31;;;;;;;8.00;1.73;;;8.70;99.90;;;;;;5055652;28;20219;-46
2021/03/15 08:23:59;;;;;;;5.90;1.77;;;8.90;99.90;;;;;;5040861;28;20731;-46
2021/03/15 08:26:26;;;;;;;7.77;1.80;;;8.80;99.90;;;;;;5054050;28;20207;-46
2021/03/15 08:28:56;;;;;;;9.23;1.60;;;9.10;99.90;;;;;;5055738;28;20195;-49
2021/03/15 08:31:43;;;;;;;10.57;2.00;;;9.30;99.90;;;;;;5051278;28;20215;-45
2021/03/15 08:34:11;;;;;;;3.80;1.57;;;9.30;99.90;;;;;;5055968;28;20250;-44
2021/03/15 08:36:47;;;;;;;2.43;1.13;;;9.60;99.90;;;;;;5049592;28;20555;-46
2021/03/15 08:39:26;;;;;;;5.63;1.27;;;9.90;99.90;;;;;;5051497;28;20326;-46
2021/03/15 08:42:11;;;;;;;7.53;1.80;;;9.80;99.90;;;;;;5051253;28;20199;-46
2021/03/15 08:44:58;;;;;;;8.93;2.03;;;10.10;99.90;;;;;;5038671;28;20206;-44
2021/03/15 08:47:50;;;;;;;10.53;1.30;;;10.00;99.90;;;;;;5051053;28;20204;-45
2021/03/15 08:50:35;;;;;;;6.93;1.40;;;9.50;99.90;;;;;;5037244;28;20203;-45
2021/03/15 08:53:03;;;;;;;8.67;1.73;;;9.10;99.90;;;;;;5035237;28;20325;-46
2021/03/15 08:55:47;;;;;;;6.63;1.50;;;9.00;99.90;;;;;;5050472;28;20229;-45
2021/03/15 08:58:43;;;;;;;8.47;2.40;;;8.40;99.90;;;;;;5050998;28;20232;-46
2021/03/15 09:01:14;;;;;;;9.57;1.20;;;8.00;99.90;;;;;;5050972;28;20370;-46
2021/03/15 09:03:52;;;;;;;7.77;1.30;;;7.80;99.90;;;;;;5036688;28;20204;-45
2021/03/15 09:06:37;;;;;;;11.37;1.43;;;7.60;99.90;;;;;;5052981;28;20653;-45
2021/03/15 09:09:24;;;;;;;3.87;0.60;;;7.60;99.90;;;;;;5048934;28;20235;-45
2021/03/15 09:11:52;;;;;;;7.00;1.30;;;7.90;99.90;;;;;;5050757;28;20700;-45
2021/03/15 09:14:25;;;;;;;5.43;0.83;;;8.60;99.90;;;;;;5052496;28;21368;-45
2021/03/15 09:17:01;;;;;;;3.00;0.60;;;8.90;99.90;;;;;;5050793;28;20600;-45
2021/03/15 09:19:35;;;;;;;2.03;0.70;;;9.70;99.90;;;;;;5051396;28;20237;-46
2021/03/15 09:22:02;;;;;;;6.43;1.57;;;10.00;99.90;;;;;;5052166;28;20230;-45
2021/03/15 09:24:45;;;;;;;8.40;2.10;;;9.90;99.90;;;;;;5051207;28;20660;-45
2021/03/15 09:27:28;;;;;;;4.97;1.23;;;9.70;99.90;;;;;;5052749;28;20200;-46
2021/03/15 09:29:54;;;;;;;2.03;1.10;;;10.00;99.90;;;;;;5049619;28;20203;-45
2021/03/15 09:32:33;;;;;;;6.47;1.23;;;9.70;99.90;;;;;;5049639;28;20230;-45
2021/03/15 09:35:14;;;;;;;2.10;0.90;;;9.10;99.90;;;;;;5036710;28;20619;-46
2021/03/15 09:37:46;;;;;;;4.07;0.80;;;8.90;99.90;;;;;;5048244;28;20201;-46
2021/03/15 09:40:13;;;;;;;4.47;1.30;;;8.70;99.90;;;;;;5052382;28;22249;-45
2021/03/15 09:42:44;;;;;;;3.13;0.83;;;9.00;99.90;;;;;;5035559;28;20295;-45
2021/03/15 09:45:13;;;;;;;4.70;1.00;;;9.60;99.90;;;;;;5049537;28;20208;-44
2021/03/15 09:47:40;;;;;;;6.07;1.07;;;9.80;99.90;;;;;;5051085;28;20700;-46
2021/03/15 09:50:18;;;;;;;2.57;1.10;;;10.20;99.90;;;;;;5027409;28;20266;-46
2021/03/15 09:52:44;;;;;;;5.47;0.60;;;10.10;99.90;;;;;;5050032;28;20297;-47
2021/03/15 09:55:11;;;;;;;3.27;0.70;;;10.40;99.90;;;;;;5053395;28;20226;-47
2021/03/15 09:57:37;;;;;;;2.30;0.73;;;10.60;99.90;;;;;;5052195;28;20187;-46
2021/03/15 10:00:09;;;;;;;5.23;0.57;;;10.90;99.90;;;;;;5051928;28;20264;-46
2021/03/15 10:02:36;;;;;;;8.17;1.13;;;11.00;99.90;;;;;;5052631;28;20208;-46
2021/03/15 10:05:08;;;;;;;7.03;0.90;;;11.10;99.90;;;;;;5053410;28;20218;-45
2021/03/15 10:07:41;;;;;;;3.57;0.70;;;10.90;99.90;;;;;;5051792;28;20223;-51
2021/03/15 10:10:09;;;;;;;10.23;1.47;;;10.70;99.90;;;;;;5049467;28;20212;-47
2021/03/15 10:12:36;;;;;;;5.53;1.27;;;11.20;99.90;;;;;;5049497;28;20234;-46
2021/03/15 10:15:07;;;;;;;6.60;1.30;;;11.60;99.90;;;;;;5049716;28;20243;-46
2021/03/15 10:17:33;;;;;;;6.47;1.20;;;11.40;99.90;;;;;;5054175;28;20250;-46
2021/03/15 10:20:01;;;;;;;6.53;1.37;;;10.90;99.90;;;;;;5050443;28;20326;-47
2021/03/15 10:22:33;;;;;;;4.30;0.93;;;11.10;99.90;;;;;;5034431;28;20204;-46
2021/03/15 10:24:59;;;;;;;6.23;1.40;;;11.40;99.90;;;;;;5033424;28;20304;-46
2021/03/15 10:27:28;;;;;;;11.03;1.37;;;11.00;99.90;;;;;;5051586;28;20209;-46
2021/03/15 10:29:56;;;;;;;9.07;1.23;;;10.60;99.90;;;;;;5052525;28;20204;-46
2021/03/15 10:32:29;;;;;;;4.10;0.87;;;10.60;99.90;;;;;;5049346;28;20271;-47
2021/03/15 10:35:02;;;;;;;7.27;1.13;;;10.00;99.90;;;;;;5050723;28;20214;-47
2021/03/15 10:37:33;;;;;;;2.60;0.80;;;10.20;99.90;;;;;;5033318;28;20247;-45
2021/03/15 10:40:01;;;;;;;4.53;0.70;;;10.70;99.90;;;;;;5050226;28;20195;-44
2021/03/15 10:42:28;;;;;;;3.03;1.17;;;10.80;99.90;;;;;;5037073;28;20212;-46
2021/03/15 10:44:58;;;;;;;2.77;1.00;;;10.60;99.90;;;;;;5050736;28;20266;-45
2021/03/15 10:47:33;;;;;;;6.93;0.77;;;10.50;99.90;;;;;;5055185;28;20209;-45
2021/03/15 10:50:00;;;;;;;5.57;1.10;;;10.20;99.90;;;;;;5053511;28;20206;-46
2021/03/15 10:52:32;;;;;;;11.20;1.53;;;10.00;99.90;;;;;;5024540;28;20247;-46
2021/03/15 10:55:13;;;;;;;4.37;0.90;;;10.10;99.90;;;;;;5053709;28;20239;-46
2021/03/15 10:58:03;;;;;;;5.73;1.00;;;10.00;99.90;;;;;;5052704;28;20633;-46
2021/03/15 11:00:57;;;;;;;6.90;1.20;;;9.90;99.90;;;;;;5052547;28;20213;-46
2021/03/15 11:03:25;;;;;;;5.93;1.37;;;10.00;99.90;;;;;;5052513;28;20298;-45
2021/03/15 11:06:05;;;;;;;6.47;1.10;;;10.40;99.90;;;;;;5052741;28;20209;-47
2021/03/15 11:08:32;;;;;;;6.57;1.00;;;10.70;99.90;;;;;;5038365;28;20286;-45
2021/03/15 11:11:15;;;;;;;4.27;1.37;;;10.60;99.90;;;;;;5038968;28;20638;-46
2021/03/15 11:13:47;;;;;;;6.00;1.37;;;10.50;99.90;;;;;;5059835;28;20222;-46
2021/03/15 11:16:24;;;;;;;2.83;0.77;;;10.60;99.90;;;;;;5060198;28;20294;-46
2021/03/15 11:19:17;;;;;;;4.63;0.93;;;10.80;99.90;;;;;;5055757;28;20195;-46
2021/03/15 11:21:45;;;;;;;3.80;0.87;;;11.00;99.90;;;;;;5056495;28;20197;-47
2021/03/15 11:24:12;;;;;;;5.97;0.93;;;11.10;99.90;;;;;;5056077;28;20329;-46
2021/03/15 11:26:54;;;;;;;3.80;1.20;;;11.30;99.90;;;;;;5058155;28;20201;-46
2021/03/15 11:29:40;;;;;;;9.10;1.53;;;10.80;99.90;;;;;;5055624;28;20311;-46
2021/03/15 11:32:11;;;;;;;5.60;0.77;;;10.50;99.90;;;;;;5056602;28;20215;-47
2021/03/15 11:34:50;;;;;;;4.10;0.90;;;10.20;99.90;;;;;;5056939;28;20247;-46
2021/03/15 11:37:25;;;;;;;6.83;1.53;;;10.20;99.90;;;;;;5054276;28;20206;-47
2021/03/15 11:39:52;;;;;;;2.97;0.67;;;10.20;99.90;;;;;;5057179;28;20201;-46
2021/03/15 11:42:31;;;;;;;6.73;1.00;;;10.10;99.90;;;;;;5058966;28;20265;-46
2021/03/15 11:45:01;;;;;;;5.67;1.53;;;10.00;99.90;;;;;;5056773;28;20315;-45
2021/03/15 11:47:28;;;;;;;6.33;0.93;;;10.20;99.90;;;;;;5041370;28;20225;-46
2021/03/15 11:49:54;;;;;;;2.60;0.60;;;10.80;99.90;;;;;;5055795;28;20253;-46
2021/03/15 11:52:28;;;;;;;3.50;0.60;;;10.80;99.90;;;;;;5056602;28;20238;-46
2021/03/15 11:54:59;;;;;;;5.40;0.80;;;10.10;99.90;;;;;;5058104;28;20217;-45
2021/03/15 11:57:25;;;;;;;4.87;1.37;;;10.00;99.90;;;;;;5053174;28;20752;-46
2021/03/15 11:59:52;;;;;;;2.17;0.90;;;10.20;99.90;;;;;;5057815;28;20278;-47
2021/03/15 12:02:19;;;;;;;6.70;1.20;;;10.40;99.90;;;;;;5057833;28;20206;-47
2021/03/15 12:04:46;;;;;;;2.20;0.50;;;10.50;99.90;;;;;;5057930;28;20408;-46
2021/03/15 12:07:12;;;;;;;3.43;1.00;;;10.70;99.90;;;;;;5056101;28;20251;-46
2021/03/15 12:09:40;;;;;;;3.40;0.67;;;10.70;99.90;;;;;;5055677;28;20213;-46
2021/03/15 12:12:08;;;;;;;2.63;0.77;;;10.30;99.90;;;;;;5039423;28;20551;-46
2021/03/15 12:14:34;;;;;;;3.73;0.83;;;10.30;99.90;;;;;;5057463;28;20212;-45
2021/03/15 12:17:01;;;;;;;3.37;0.80;;;10.40;99.90;;;;;;5057936;28;20537;-46
2021/03/15 12:19:27;;;;;;;8.13;1.03;;;10.40;99.90;;;;;;5055994;28;20204;-46
2021/03/15 12:21:54;;;;;;;10.50;1.30;;;10.30;99.90;;;;;;5038339;28;20637;-46
2021/03/15 12:24:20;;;;;;;5.83;1.07;;;10.20;99.90;;;;;;5056294;28;20732;-45
2021/03/15 12:26:46;;;;;;;3.47;1.03;;;10.10;99.90;;;;;;5059170;28;20583;-45
2021/03/15 12:29:12;;;;;;;8.30;1.07;;;10.40;99.90;;;;;;5057703;28;20252;-45
2021/03/15 12:31:39;;;;;;;7.20;1.07;;;10.60;99.90;;;;;;5059572;28;20636;-45
2021/03/15 12:34:07;;;;;;;4.33;0.77;;;10.60;99.90;;;;;;5055691;28;20218;-45
2021/03/15 12:36:33;;;;;;;2.93;0.47;;;10.60;99.90;;;;;;5057032;28;20196;-45
2021/03/15 12:38:59;;;;;;;7.20;0.60;;;11.30;99.90;;;;;;5056093;28;20214;-45
2021/03/15 12:41:26;;;;;;;3.13;0.90;;;11.50;99.90;;;;;;5056709;28;20238;-45
2021/03/15 12:43:52;;;;;;;6.10;1.03;;;11.30;99.90;;;;;;5056155;28;20198;-47
2021/03/15 12:46:19;;;;;;;4.27;1.00;;;11.10;99.90;;;;;;5058790;28;20693;-46
2021/03/15 12:48:52;;;;;;;3.23;0.70;;;10.70;99.90;;;;;;5056317;28;20208;-46
2021/03/15 12:51:18;;;;;;;9.27;1.53;;;10.40;99.90;;;;;;5055804;28;20209;-47
2021/03/15 12:53:45;;;;;;;6.00;0.90;;;9.80;99.90;;;;;;5055748;28;20641;-45
2021/03/15 12:56:11;;;;;;;2.30;0.73;;;9.50;99.90;;;;;;5057158;28;20249;-46
2021/03/15 12:58:58;;;;;;;6.67;1.03;;;9.20;99.90;;;;;;5056566;28;20211;-44
2021/03/15 13:01:25;;;;;;;6.03;0.73;;;9.50;99.90;;;;;;5037773;28;20621;-45
2021/03/15 13:03:53;;;;;;;9.07;1.47;;;10.00;99.90;;;;;;5056820;28;20195;-45
2021/03/15 13:06:20;;;;;;;5.40;1.07;;;10.40;99.90;;;;;;5055645;28;20206;-45
2021/03/15 13:08:47;;;;;;;6.53;1.33;;;10.80;99.90;;;;;;5057408;28;20300;-45
2021/03/15 13:11:14;;;;;;;5.70;1.17;;;10.70;99.90;;;;;;5056544;28;20293;-47
2021/03/15 13:13:40;;;;;;;4.70;0.87;;;10.90;99.90;;;;;;5054926;28;21198;-46
2021/03/15 13:16:26;;;;;;;5.33;1.50;;;11.10;99.90;;;;;;5044075;28;20646;-45